createdAt,value
2022-09-17T00:00:05.689Z,8.69
2022-09-17T00:02:13.783Z,9.73
2022-09-17T00:04:16.506Z,9.63
2022-09-17T00:06:19.545Z,6.97
2022-09-17T00:08:22.225Z,8.85
2022-09-17T00:10:25.611Z,9.99
2022-09-17T00:12:28.359Z,10.06
2022-09-17T00:14:31.052Z,10.11
2022-09-17T00:16:38.392Z,9.24
2022-09-17T00:18:41.990Z,8.73
2022-09-17T00:20:46.759Z,7.09
2022-09-17T00:22:49.428Z,-0.89
2022-09-17T00:24:52.161Z,7.86
2022-09-17T00:26:54.874Z,6.26
2022-09-17T00:28:59.618Z,8.66
2022-09-17T00:31:02.836Z,9.65
2022-09-17T00:33:06.939Z,9.72
2022-09-17T00:35:09.751Z,9.75
2022-09-17T00:37:12.448Z,9.07
2022-09-17T00:39:16.260Z,9.57
2022-09-17T00:41:19.524Z,8.45
2022-09-17T00:43:40.912Z,9.86
2022-09-17T00:45:43.570Z,9.66
2022-09-17T00:47:50.074Z,9.79
2022-09-17T00:49:57.936Z,8.57
2022-09-17T00:52:06.257Z,9.61
2022-09-17T00:54:11.706Z,9.20
2022-09-17T00:56:22.954Z,10.09
2022-09-17T00:58:27.842Z,10.13
2022-09-17T01:00:32.028Z,9.32
2022-09-17T01:02:35.302Z,10.22
2022-09-17T01:04:37.976Z,10.31
2022-09-17T01:06:48.372Z,8.33
2022-09-17T01:09:09.147Z,5.85
2022-09-17T01:11:33.229Z,10.23
2022-09-17T01:13:49.518Z,10.24
2022-09-17T01:16:00.708Z,10.05
2022-09-17T01:18:21.754Z,3.84
2022-09-17T01:20:49.640Z,10.33
2022-09-17T01:23:13.034Z,9.17
2022-09-17T01:25:24.989Z,3.06
2022-09-17T01:27:55.213Z,8.83
2022-09-17T01:30:12.370Z,10.25
2022-09-17T01:32:25.345Z,10.12
2022-09-17T01:34:37.340Z,8.38
2022-09-17T01:36:49.938Z,10.21
2022-09-17T01:38:59.714Z,6.67
2022-09-17T01:41:07.754Z,10.34
2022-09-17T01:43:15.154Z,9.33
2022-09-17T01:45:24.778Z,10.00
2022-09-17T01:47:35.235Z,9.92
2022-09-17T01:49:40.161Z,9.98
2022-09-17T01:51:47.590Z,9.83
2022-09-17T01:53:57.867Z,9.77
2022-09-17T01:56:01.776Z,9.78
2022-09-17T01:58:09.515Z,8.98
2022-09-17T02:00:15.776Z,8.05
2022-09-17T02:02:25.416Z,2.69
2022-09-17T02:04:34.714Z,9.60
2022-09-17T02:06:39.872Z,9.23
2022-09-17T02:08:50.165Z,9.66
2022-09-17T02:10:58.747Z,8.21
2022-09-17T02:13:09.845Z,9.64
2022-09-17T02:15:18.715Z,9.49
2022-09-17T02:17:28.168Z,9.49
2022-09-17T02:19:37.339Z,9.59
2022-09-17T02:21:44.907Z,9.58
2022-09-17T02:23:53.529Z,9.41
2022-09-17T02:26:01.785Z,9.56
2022-09-17T02:28:11.387Z,9.47
2022-09-17T02:30:14.963Z,7.78
2022-09-17T02:32:17.757Z,9.74
2022-09-17T02:34:21.212Z,9.80
2022-09-17T02:36:25.328Z,8.73
2022-09-17T02:38:30.890Z,6.43
2022-09-17T02:40:40.017Z,9.64
2022-09-17T02:42:57.806Z,9.86
2022-09-17T02:45:07.933Z,9.88
2022-09-17T02:47:37.955Z,9.92
2022-09-17T02:49:55.167Z,9.95
2022-09-17T02:52:08.886Z,9.79
2022-09-17T02:54:23.452Z,7.90
2022-09-17T02:56:35.316Z,9.28
2022-09-17T02:58:45.030Z,9.92
2022-09-17T03:00:48.784Z,8.34
2022-09-17T03:02:58.059Z,5.91
2022-09-17T03:05:01.963Z,10.17
2022-09-17T03:07:09.853Z,7.03
2022-09-17T03:09:12.598Z,9.77
2022-09-17T03:11:15.448Z,8.66
2022-09-17T03:13:18.131Z,9.18
2022-09-17T03:15:20.820Z,9.21
2022-09-17T03:17:23.581Z,9.24
2022-09-17T03:19:27.889Z,9.04
2022-09-17T03:21:31.291Z,9.19
2022-09-17T03:23:35.339Z,8.85
2022-09-17T03:25:38.015Z,8.79
2022-09-17T03:27:40.720Z,8.77
2022-09-17T03:29:43.454Z,8.78
2022-09-17T03:31:46.212Z,8.55
2022-09-17T03:33:50.131Z,8.73
2022-09-17T03:35:52.914Z,8.21
2022-09-17T03:37:55.549Z,9.02
2022-09-17T03:39:59.635Z,9.00
2022-09-17T03:42:02.506Z,8.93
2022-09-17T03:44:05.235Z,8.98
2022-09-17T03:46:08.103Z,8.85
2022-09-17T03:48:10.804Z,8.78
2022-09-17T03:50:13.514Z,8.03
2022-09-17T03:52:16.315Z,8.64
2022-09-17T03:54:19.471Z,8.81
2022-09-17T03:56:23.569Z,8.80
2022-09-17T03:58:26.618Z,8.88
2022-09-17T04:00:29.378Z,8.76
2022-09-17T04:02:32.270Z,8.55
2022-09-17T04:04:35.094Z,7.22
2022-09-17T04:06:37.770Z,8.44
2022-09-17T04:08:40.449Z,8.40
2022-09-17T04:10:43.415Z,5.82
2022-09-17T04:12:47.444Z,8.20
2022-09-17T04:14:50.243Z,8.33
2022-09-17T04:16:52.957Z,8.58
2022-09-17T04:18:55.626Z,8.49
2022-09-17T04:20:58.622Z,8.54
2022-09-17T04:23:01.534Z,6.71
2022-09-17T04:25:04.216Z,8.44
2022-09-17T04:27:07.007Z,8.42
2022-09-17T04:29:11.149Z,8.46
2022-09-17T04:31:13.941Z,7.81
2022-09-17T04:33:16.685Z,8.69
2022-09-17T04:35:19.413Z,8.48
2022-09-17T04:37:22.280Z,6.68
2022-09-17T04:39:25.211Z,7.41
2022-09-17T04:41:28.119Z,8.36
2022-09-17T04:43:30.827Z,8.37
2022-09-17T04:45:35.016Z,8.39
2022-09-17T04:47:39.718Z,8.17
2022-09-17T04:49:42.424Z,8.64
2022-09-17T04:51:45.322Z,8.83
2022-09-17T04:53:47.991Z,7.93
2022-09-17T04:55:50.692Z,8.85
2022-09-17T04:57:54.784Z,8.83
2022-09-17T04:59:57.661Z,8.81
2022-09-17T05:02:01.911Z,8.82
2022-09-17T05:04:04.707Z,8.52
2022-09-17T05:06:07.693Z,8.16
2022-09-17T05:08:10.400Z,8.38
2022-09-17T05:10:14.458Z,10.83
2022-09-17T05:12:17.148Z,12.08
2022-09-17T05:14:19.782Z,12.07
2022-09-17T05:16:22.604Z,11.45
2022-09-17T05:18:27.001Z,7.64
2022-09-17T05:20:29.792Z,10.15
2022-09-17T05:22:32.468Z,9.53
2022-09-17T05:24:39.264Z,9.10
2022-09-17T05:26:42.124Z,9.05
2022-09-17T05:28:45.035Z,8.80
2022-09-17T05:30:47.785Z,8.62
2022-09-17T05:32:50.999Z,8.86
2022-09-17T05:34:56.255Z,8.96
2022-09-17T05:36:59.177Z,8.97
2022-09-17T05:39:02.184Z,8.95
2022-09-17T05:41:06.553Z,8.87
2022-09-17T05:43:10.450Z,8.50
2022-09-17T05:45:13.103Z,8.45
2022-09-17T05:47:15.730Z,8.43
2022-09-17T05:49:18.455Z,8.25
2022-09-17T05:51:22.585Z,5.29
2022-09-17T05:53:25.302Z,8.35
2022-09-17T05:55:27.961Z,8.46
2022-09-17T05:57:31.329Z,8.56
2022-09-17T05:59:34.284Z,6.51
2022-09-17T06:01:37.040Z,8.31
2022-09-17T06:03:40.156Z,8.56
2022-09-17T06:05:42.870Z,8.48
2022-09-17T06:07:46.925Z,3.45
2022-09-17T06:09:49.677Z,3.77
2022-09-17T06:11:52.641Z,2.05
2022-09-17T06:13:56.254Z,8.93
2022-09-17T06:15:59.179Z,8.47
2022-09-17T06:18:02.002Z,7.96
2022-09-17T06:20:05.781Z,8.94
2022-09-17T06:22:08.585Z,8.78
2022-09-17T06:24:12.823Z,8.69
2022-09-17T06:26:17.211Z,-0.64
2022-09-17T06:28:19.938Z,8.00
2022-09-17T06:30:22.676Z,9.04
2022-09-17T06:32:25.450Z,9.16
2022-09-17T06:34:28.180Z,9.20
2022-09-17T06:36:30.896Z,6.45
2022-09-17T06:38:35.161Z,9.22
2022-09-17T06:40:39.395Z,6.69
2022-09-17T06:42:42.537Z,4.51
2022-09-17T06:44:45.284Z,9.01
2022-09-17T06:46:51.124Z,7.78
2022-09-17T06:48:54.169Z,9.02
2022-09-17T06:51:02.700Z,7.24
2022-09-17T06:53:05.467Z,9.33
2022-09-17T06:55:08.822Z,8.41
2022-09-17T06:57:13.099Z,8.95
2022-09-17T06:59:15.824Z,9.28
2022-09-17T07:01:18.657Z,8.84
2022-09-17T07:03:23.390Z,8.64
2022-09-17T07:05:27.044Z,9.63
2022-09-17T07:07:29.871Z,5.84
2022-09-17T07:09:32.560Z,9.69
2022-09-17T07:11:35.290Z,-0.27
2022-09-17T07:13:39.583Z,4.50
2022-09-17T07:15:42.411Z,7.42
2022-09-17T07:17:45.424Z,9.50
2022-09-17T07:19:48.141Z,9.44
2022-09-17T07:21:50.881Z,9.64
2022-09-17T07:23:53.589Z,8.65
2022-09-17T07:25:58.824Z,-0.29
2022-09-17T07:28:04.054Z,3.22
2022-09-17T07:30:09.744Z,9.42
2022-09-17T07:32:12.471Z,8.85
2022-09-17T07:34:15.387Z,9.45
2022-09-17T07:36:19.021Z,9.28
2022-09-17T07:38:22.678Z,9.39
2022-09-17T07:40:25.456Z,9.40
2022-09-17T07:42:28.430Z,9.39
2022-09-17T07:44:31.268Z,6.71
2022-09-17T07:46:35.455Z,9.46
2022-09-17T07:48:38.309Z,9.53
2022-09-17T07:50:41.434Z,9.71
2022-09-17T07:52:47.358Z,9.74
2022-09-17T07:54:50.160Z,8.05
2022-09-17T07:56:53.285Z,9.47
2022-09-17T07:58:56.681Z,9.42
2022-09-17T08:01:03.190Z,6.28
2022-09-17T08:03:07.394Z,9.43
2022-09-17T08:05:10.420Z,9.41
2022-09-17T08:07:14.050Z,9.46
2022-09-17T08:09:18.559Z,6.23
2022-09-17T08:11:44.680Z,8.50
2022-09-17T08:13:49.576Z,10.03
2022-09-17T08:15:52.319Z,10.23
2022-09-17T08:17:55.066Z,9.39
2022-09-17T08:19:59.158Z,10.17
2022-09-17T08:22:01.905Z,10.10
2022-09-17T08:24:05.119Z,10.41
2022-09-17T08:26:09.153Z,10.67
2022-09-17T08:28:11.890Z,10.57
2022-09-17T08:30:14.654Z,10.56
2022-09-17T08:32:17.433Z,8.25
2022-09-17T08:34:20.162Z,9.95
2022-09-17T08:36:26.135Z,10.18
2022-09-17T08:38:31.069Z,10.27
2022-09-17T08:40:42.114Z,10.36
2022-09-17T08:42:54.177Z,10.00
2022-09-17T08:45:00.662Z,10.50
2022-09-17T08:47:12.496Z,10.79
2022-09-17T08:49:25.854Z,10.70
2022-09-17T08:51:39.321Z,10.41
2022-09-17T08:53:53.718Z,10.95
2022-09-17T08:56:02.295Z,10.85
2022-09-17T08:58:39.022Z,11.12
2022-09-17T09:00:47.988Z,11.17
2022-09-17T09:03:08.183Z,11.14
2022-09-17T09:05:15.606Z,6.84
2022-09-17T09:07:26.225Z,11.39
2022-09-17T09:09:35.648Z,10.69
2022-09-17T09:11:40.330Z,11.91
2022-09-17T09:13:47.113Z,11.31
2022-09-17T09:15:56.299Z,11.22
2022-09-17T09:18:03.113Z,9.00
2022-09-17T09:20:06.931Z,10.25
2022-09-17T09:22:22.401Z,11.41
2022-09-17T09:24:29.098Z,10.23
2022-09-17T09:26:40.980Z,11.25
2022-09-17T09:29:05.144Z,11.45
2022-09-17T09:31:22.086Z,11.59
2022-09-17T09:33:29.450Z,11.86
2022-09-17T09:35:34.586Z,11.86
2022-09-17T09:37:43.467Z,12.02
2022-09-17T09:39:51.076Z,11.43
2022-09-17T09:41:59.701Z,11.85
2022-09-17T09:44:05.621Z,11.54
2022-09-17T09:46:38.205Z,11.25
2022-09-17T09:48:54.284Z,11.76
2022-09-17T09:51:13.998Z,11.81
2022-09-17T09:53:28.573Z,11.91
2022-09-17T09:55:51.010Z,11.81
2022-09-17T09:58:00.315Z,12.17
2022-09-17T10:00:26.929Z,11.69
2022-09-17T10:02:29.857Z,11.63
2022-09-17T10:04:33.210Z,11.99
2022-09-17T10:06:35.997Z,12.12
2022-09-17T10:08:41.104Z,10.26
2022-09-17T10:10:57.433Z,12.61
2022-09-17T10:13:07.913Z,12.74
2022-09-17T10:15:26.434Z,12.57
2022-09-17T10:17:29.679Z,12.49
2022-09-17T10:19:32.725Z,12.60
2022-09-17T10:21:37.143Z,12.53
2022-09-17T10:23:44.891Z,2.92
2022-09-17T10:25:48.869Z,12.41
2022-09-17T10:27:53.149Z,12.72
2022-09-17T10:30:04.539Z,11.42
2022-09-17T10:32:08.573Z,12.17
2022-09-17T10:34:21.793Z,13.00
2022-09-17T10:36:41.192Z,12.75
2022-09-17T10:38:47.246Z,13.02
2022-09-17T10:40:50.236Z,12.75
2022-09-17T10:43:24.229Z,12.58
2022-09-17T10:45:28.901Z,12.40
2022-09-17T10:47:38.324Z,11.65
2022-09-17T10:49:43.575Z,13.46
2022-09-17T10:51:46.527Z,13.55
2022-09-17T10:54:05.547Z,12.91
2022-09-17T10:56:18.020Z,12.40
2022-09-17T10:58:39.268Z,13.83
2022-09-17T11:01:00.368Z,13.33
2022-09-17T11:03:30.978Z,13.80
2022-09-17T11:05:42.727Z,12.51
2022-09-17T11:07:53.699Z,12.37
2022-09-17T11:10:03.723Z,11.75
2022-09-17T11:12:23.100Z,14.04
2022-09-17T11:14:43.799Z,13.80
2022-09-17T11:16:55.335Z,14.54
2022-09-17T11:19:05.841Z,14.58
2022-09-17T11:21:22.714Z,13.53
2022-09-17T11:23:49.229Z,13.67
2022-09-17T11:26:00.323Z,13.93
2022-09-17T11:28:14.801Z,12.29
2022-09-17T11:30:21.761Z,13.64
2022-09-17T11:32:54.200Z,12.45
2022-09-17T11:35:03.105Z,13.52
2022-09-17T11:37:12.063Z,11.77
2022-09-17T11:39:21.396Z,14.01
2022-09-17T11:41:28.308Z,14.06
2022-09-17T11:43:35.611Z,13.61
2022-09-17T11:45:45.588Z,14.54
2022-09-17T11:47:52.581Z,14.73
2022-09-17T11:50:01.612Z,14.93
2022-09-17T11:52:08.926Z,15.16
2022-09-17T11:54:21.854Z,14.93
2022-09-17T11:56:28.407Z,15.28
2022-09-17T11:58:44.489Z,15.02
2022-09-17T12:00:54.282Z,16.26
2022-09-17T12:03:03.109Z,13.05
2022-09-17T12:05:11.004Z,16.22
2022-09-17T12:07:28.152Z,15.68
2022-09-17T12:09:35.294Z,15.33
2022-09-17T12:11:43.255Z,15.65
2022-09-17T12:13:51.592Z,15.70
2022-09-17T12:16:07.260Z,14.95
2022-09-17T12:18:37.394Z,14.68
2022-09-17T12:20:43.714Z,14.67
2022-09-17T12:22:49.866Z,14.73
2022-09-17T12:24:53.647Z,14.46
2022-09-17T12:27:09.494Z,14.15
2022-09-17T12:29:28.044Z,14.29
2022-09-17T12:31:41.312Z,14.43
2022-09-17T12:33:50.894Z,14.90
2022-09-17T12:36:24.026Z,14.73
2022-09-17T12:38:46.520Z,13.40
2022-09-17T12:40:58.488Z,14.18
2022-09-17T12:43:28.683Z,14.03
2022-09-17T12:45:49.935Z,13.99
2022-09-17T12:48:27.100Z,11.44
2022-09-17T12:50:43.864Z,13.64
2022-09-17T12:52:58.601Z,13.83
2022-09-17T12:55:26.759Z,13.34
2022-09-17T12:57:41.637Z,4.66
2022-09-17T12:59:51.851Z,11.35
2022-09-17T13:01:59.347Z,12.78
2022-09-17T13:04:19.125Z,12.81
2022-09-17T13:07:06.448Z,12.55
2022-09-17T13:09:45.019Z,11.75
2022-09-17T13:12:23.643Z,12.34
2022-09-17T13:14:34.474Z,11.63
2022-09-17T13:16:43.519Z,11.99
2022-09-17T13:21:24.991Z,10.70
2022-09-17T13:23:36.942Z,11.20
2022-09-17T13:25:52.522Z,11.27
2022-09-17T13:28:07.573Z,7.03
2022-09-17T13:30:12.261Z,8.25
2022-09-17T13:32:45.510Z,10.57
2022-09-17T13:34:48.381Z,11.67
2022-09-17T13:36:54.036Z,11.51
2022-09-17T13:38:57.054Z,12.20
2022-09-17T13:41:19.367Z,11.79
2022-09-17T13:43:27.053Z,12.24
2022-09-17T13:45:30.118Z,10.23
2022-09-17T13:47:34.477Z,12.34
2022-09-17T13:49:44.410Z,11.17
2022-09-17T13:51:53.669Z,12.78
2022-09-17T13:53:58.881Z,7.48
2022-09-17T13:56:22.906Z,11.19
2022-09-17T13:58:29.526Z,13.77
2022-09-17T14:00:52.578Z,13.39
2022-09-17T14:02:55.474Z,13.84
2022-09-17T14:05:25.571Z,14.97
2022-09-17T14:07:45.666Z,15.21
2022-09-17T14:09:54.590Z,14.54
2022-09-17T14:11:57.387Z,13.34
2022-09-17T14:14:40.377Z,11.58
2022-09-17T14:16:50.357Z,16.18
2022-09-17T14:19:02.794Z,15.66
2022-09-17T14:21:16.333Z,15.74
2022-09-17T14:23:20.428Z,10.10
2022-09-17T14:25:29.875Z,15.94
2022-09-17T14:27:51.813Z,15.33
2022-09-17T14:30:04.004Z,15.03
2022-09-17T14:32:08.132Z,15.63
2022-09-17T14:34:23.346Z,16.22
2022-09-17T14:36:26.170Z,11.46
2022-09-17T14:38:35.452Z,13.56
2022-09-17T14:40:45.185Z,13.07
2022-09-17T14:42:51.523Z,14.28
2022-09-17T14:44:59.851Z,14.61
2022-09-17T14:47:07.179Z,14.27
2022-09-17T14:49:22.760Z,14.34
2022-09-17T14:51:29.742Z,15.40
2022-09-17T14:53:33.973Z,15.86
2022-09-17T14:55:42.767Z,14.30
2022-09-17T14:57:47.060Z,15.83
2022-09-17T14:59:53.079Z,12.70
2022-09-17T15:01:56.740Z,15.12
2022-09-17T15:04:20.215Z,14.55
2022-09-17T15:06:23.207Z,16.10
2022-09-17T15:08:29.249Z,14.48
2022-09-17T15:10:33.989Z,15.88
2022-09-17T15:12:37.456Z,14.92
2022-09-17T15:14:40.806Z,16.03
2022-09-17T15:16:49.163Z,8.01
2022-09-17T15:18:54.578Z,13.45
2022-09-17T15:21:00.464Z,13.90
2022-09-17T15:23:11.401Z,12.21
2022-09-17T15:25:18.638Z,15.49
2022-09-17T15:27:25.797Z,13.52
2022-09-17T15:29:33.602Z,14.16
2022-09-17T15:31:37.389Z,14.57
2022-09-17T15:33:40.299Z,13.80
2022-09-17T15:36:00.039Z,12.23
2022-09-17T15:38:23.352Z,14.58
2022-09-17T15:40:31.905Z,10.47
2022-09-17T15:42:35.993Z,13.39
2022-09-17T15:44:38.890Z,13.58
2022-09-17T15:46:42.101Z,7.80
2022-09-17T15:48:44.900Z,13.63
2022-09-17T15:50:55.300Z,13.64
2022-09-17T15:53:14.745Z,13.21
2022-09-17T15:55:35.553Z,13.32
2022-09-17T15:57:39.745Z,13.03
2022-09-17T15:59:42.632Z,13.44
2022-09-17T16:01:53.782Z,14.57
2022-09-17T16:04:17.282Z,14.70
2022-09-17T16:06:37.263Z,15.44
2022-09-17T16:08:39.950Z,16.12
2022-09-17T16:10:42.769Z,15.20
2022-09-17T16:12:50.440Z,12.89
2022-09-17T16:14:54.412Z,15.78
2022-09-17T16:16:59.497Z,15.04
2022-09-17T16:19:02.498Z,15.11
2022-09-17T16:21:05.856Z,15.06
2022-09-17T16:23:08.608Z,14.91
2022-09-17T16:25:11.456Z,15.16
2022-09-17T16:27:19.389Z,15.11
2022-09-17T16:29:23.567Z,14.30
2022-09-17T16:31:26.389Z,15.27
2022-09-17T16:33:29.390Z,15.82
2022-09-17T16:35:32.089Z,15.93
2022-09-17T16:37:34.778Z,16.08
2022-09-17T16:39:37.488Z,16.61
2022-09-17T16:41:40.272Z,15.36
2022-09-17T16:43:42.958Z,13.98
2022-09-17T16:46:00.350Z,14.08
2022-09-17T16:48:03.952Z,14.02
2022-09-17T16:50:08.735Z,14.42
2022-09-17T16:52:11.404Z,9.94
2022-09-17T16:54:14.209Z,14.18
2022-09-17T16:56:17.182Z,14.25
2022-09-17T16:58:19.846Z,14.10
2022-09-17T17:00:22.586Z,13.70
2022-09-17T17:02:26.617Z,11.04
2022-09-17T17:04:29.322Z,13.01
2022-09-17T17:06:32.218Z,13.05
2022-09-17T17:08:35.413Z,13.06
2022-09-17T17:10:39.593Z,12.81
2022-09-17T17:12:42.389Z,11.07
2022-09-17T17:14:49.852Z,12.97
2022-09-17T17:16:52.532Z,13.03
2022-09-17T17:18:57.259Z,8.44
2022-09-17T17:21:05.872Z,12.66
2022-09-17T17:23:08.557Z,12.99
2022-09-17T17:25:12.625Z,12.28
2022-09-17T17:27:15.404Z,12.17
2022-09-17T17:29:18.979Z,12.28
2022-09-17T17:31:22.150Z,12.30
2022-09-17T17:33:25.183Z,10.42
2022-09-17T17:35:29.181Z,12.20
2022-09-17T17:37:31.819Z,12.30
2022-09-17T17:39:34.493Z,11.62
2022-09-17T17:41:37.244Z,10.82
2022-09-17T17:43:40.786Z,7.88
2022-09-17T17:45:43.498Z,10.93
2022-09-17T17:47:46.245Z,10.86
2022-09-17T17:49:49.029Z,3.10
2022-09-17T17:51:53.400Z,6.87
2022-09-17T17:53:56.109Z,11.14
2022-09-17T17:56:00.169Z,7.77
2022-09-17T17:58:02.900Z,10.68
2022-09-17T18:00:06.811Z,9.85
2022-09-17T18:02:14.709Z,9.66
2022-09-17T18:04:17.529Z,9.90
2022-09-17T18:06:20.377Z,10.58
2022-09-17T18:08:25.520Z,10.69
2022-09-17T18:10:28.329Z,10.75
2022-09-17T18:12:32.238Z,10.57
2022-09-17T18:14:34.930Z,6.83
2022-09-17T18:16:38.461Z,9.48
2022-09-17T18:18:44.834Z,10.22
2022-09-17T18:20:48.015Z,10.34
2022-09-17T18:22:50.798Z,10.32
2022-09-17T18:24:54.859Z,10.10
2022-09-17T18:26:57.539Z,10.06
2022-09-17T18:29:03.255Z,8.88
2022-09-17T18:31:10.485Z,9.98
2022-09-17T18:33:13.282Z,7.45
2022-09-17T18:35:19.845Z,9.98
2022-09-17T18:37:22.544Z,6.70
2022-09-17T18:41:50.130Z,10.04
2022-09-17T18:43:52.923Z,10.04
2022-09-17T18:45:56.411Z,9.95
2022-09-17T18:47:59.126Z,7.54
2022-09-17T18:50:01.739Z,-1.16
2022-09-17T18:52:04.455Z,10.06
2022-09-17T18:54:07.324Z,9.06
2022-09-17T18:56:16.800Z,9.42
2022-09-17T18:58:21.025Z,9.90
2022-09-17T19:00:24.407Z,10.02
2022-09-17T19:02:27.287Z,9.30
2022-09-17T19:04:30.062Z,10.09
2022-09-17T19:06:33.967Z,8.48
2022-09-17T19:08:37.127Z,9.96
2022-09-17T19:10:40.088Z,9.92
2022-09-17T19:12:43.224Z,10.10
2022-09-17T19:14:47.350Z,10.00
2022-09-17T19:16:50.130Z,9.96
2022-09-17T19:18:52.929Z,10.17
2022-09-17T19:21:00.608Z,10.18
2022-09-17T19:23:03.473Z,6.37
2022-09-17T19:25:07.209Z,10.04
2022-09-17T19:27:10.072Z,6.39
2022-09-17T19:29:12.850Z,10.07
2022-09-17T19:31:18.197Z,10.07
2022-09-17T19:33:21.013Z,10.09
2022-09-17T19:35:25.959Z,10.15
2022-09-17T19:37:28.685Z,10.22
2022-09-17T19:39:31.414Z,10.42
2022-09-17T19:41:36.184Z,10.34
2022-09-17T19:43:39.281Z,10.32
2022-09-17T19:45:42.027Z,9.17
2022-09-17T19:47:46.165Z,10.13
2022-09-17T19:49:52.105Z,9.86
2022-09-17T19:51:54.863Z,1.57
2022-09-17T19:53:57.902Z,8.17
2022-09-17T19:56:01.022Z,10.21
2022-09-17T19:58:04.472Z,10.01
2022-09-17T20:00:09.632Z,9.74
2022-09-17T20:02:16.141Z,10.14
2022-09-17T20:04:20.224Z,10.20
2022-09-17T20:06:23.866Z,8.63
2022-09-17T20:08:26.685Z,7.09
2022-09-17T20:10:30.023Z,10.15
2022-09-17T20:12:32.681Z,9.98
2022-09-17T20:14:35.423Z,9.21
2022-09-17T20:16:40.114Z,9.88
2022-09-17T20:18:43.768Z,9.79
2022-09-17T20:20:47.767Z,9.78
2022-09-17T20:22:52.500Z,9.96
2022-09-17T20:24:55.186Z,7.36
2022-09-17T20:26:57.905Z,10.05
2022-09-17T20:29:00.732Z,9.26
2022-09-17T20:31:04.902Z,9.72
2022-09-17T20:33:07.774Z,9.87
2022-09-17T20:35:10.496Z,9.88
2022-09-17T20:37:14.573Z,9.71
2022-09-17T20:39:22.363Z,9.76
2022-09-17T20:41:27.408Z,9.75
2022-09-17T20:43:33.351Z,9.95
2022-09-17T20:45:36.089Z,9.95
2022-09-17T20:47:39.227Z,9.90
2022-09-17T20:49:41.964Z,9.78
2022-09-17T20:51:44.752Z,9.85
2022-09-17T20:53:49.091Z,8.06
2022-09-17T20:55:56.216Z,8.66
2022-09-17T20:57:58.893Z,9.83
2022-09-17T21:00:15.206Z,9.14
2022-09-17T21:02:18.829Z,5.60
2022-09-17T21:04:23.967Z,9.75
2022-09-17T21:06:29.035Z,9.75
2022-09-17T21:08:31.729Z,5.86
2022-09-17T21:10:35.712Z,9.73
2022-09-17T21:12:38.358Z,6.40
2022-09-17T21:14:41.033Z,2.14
2022-09-17T21:16:44.005Z,9.95
2022-09-17T21:18:46.681Z,-1.89
2022-09-17T21:20:49.375Z,10.05
2022-09-17T21:22:52.052Z,9.82
2022-09-17T21:24:54.690Z,9.97
2022-09-17T21:26:58.773Z,5.99
2022-09-17T21:29:01.454Z,9.87
2022-09-17T21:31:06.628Z,3.71
2022-09-17T21:33:09.402Z,9.95
2022-09-17T21:35:12.148Z,2.54
2022-09-17T21:37:14.847Z,9.99
2022-09-17T21:39:19.049Z,10.03
2022-09-17T21:41:23.476Z,9.80
2022-09-17T21:43:29.598Z,9.72
2022-09-17T21:45:32.377Z,9.72
2022-09-17T21:47:35.085Z,8.51
2022-09-17T21:49:37.803Z,9.73
2022-09-17T21:51:42.538Z,9.66
2022-09-17T21:53:45.804Z,9.88
2022-09-17T21:55:48.501Z,9.69
2022-09-17T21:57:51.215Z,9.51
2022-09-17T21:59:55.342Z,9.58
2022-09-17T22:01:58.139Z,8.68
2022-09-17T22:04:02.116Z,6.46
2022-09-17T22:06:07.030Z,9.29
2022-09-17T22:08:09.805Z,9.27
2022-09-17T22:10:14.235Z,9.32
2022-09-17T22:12:17.001Z,8.70
2022-09-17T22:14:21.645Z,7.57
2022-09-17T22:16:30.515Z,9.38
2022-09-17T22:18:33.909Z,7.12
2022-09-17T22:20:36.640Z,9.34
2022-09-17T22:22:39.363Z,5.49
2022-09-17T22:24:44.356Z,8.99
2022-09-17T22:26:54.113Z,9.15
2022-09-17T22:29:02.620Z,7.57
2022-09-17T22:31:07.951Z,5.24
2022-09-17T22:33:12.124Z,8.87
2022-09-17T22:35:14.966Z,8.97
2022-09-17T22:37:17.665Z,9.05
2022-09-17T22:39:21.520Z,8.80
2022-09-17T22:41:26.514Z,8.96
2022-09-17T22:43:29.164Z,8.84
2022-09-17T22:45:31.939Z,8.93
2022-09-17T22:47:34.721Z,8.66
2022-09-17T22:49:38.751Z,0.41
2022-09-17T22:51:42.288Z,8.88
2022-09-17T22:53:45.356Z,7.03
2022-09-17T22:55:54.997Z,8.85
2022-09-17T22:57:57.696Z,8.72
2022-09-17T23:00:00.367Z,8.86
2022-09-17T23:02:03.208Z,8.83
2022-09-17T23:04:06.877Z,8.85
2022-09-17T23:06:13.026Z,5.39
2022-09-17T23:08:15.952Z,4.11
2022-09-17T23:10:18.969Z,8.90
2022-09-17T23:12:21.676Z,9.04
2022-09-17T23:14:24.385Z,9.23
2022-09-17T23:16:27.111Z,9.32
2022-09-17T23:18:30.336Z,7.38
2022-09-17T23:20:33.104Z,9.33
2022-09-17T23:22:37.109Z,9.43
2022-09-17T23:24:39.802Z,8.87
2022-09-17T23:26:42.541Z,9.31
2022-09-17T23:28:45.899Z,9.04
2022-09-17T23:30:48.714Z,9.08
2022-09-17T23:32:53.817Z,6.78
2022-09-17T23:34:56.563Z,9.11
2022-09-17T23:36:59.297Z,8.97
2022-09-17T23:39:04.119Z,6.21
2022-09-17T23:41:11.509Z,7.52
2022-09-17T23:43:14.381Z,8.80
2022-09-17T23:45:17.231Z,8.72
2022-09-17T23:47:20.151Z,3.65
2022-09-17T23:49:22.886Z,7.94
2022-09-17T23:51:27.969Z,7.77
2022-09-17T23:53:31.024Z,6.37
2022-09-17T23:55:35.240Z,8.78
2022-09-17T23:57:38.985Z,7.45
2022-09-17T23:59:41.702Z,8.76
